Time;durP1;ratioP1;P1;durP2;ratioP2;P2;SDS_P1;SDS_P2;PMS_P1;PMS_P2;Temp;Humidity;BMP_temperature;BMP_pressure;BME280_temperature;BME280_humidity;BME280_pressure;Samples;Min_cycle;Max_cycle;Signal;HPM_P1;HPM_P2
2021/01/24 00:00:28;;;;;;;16.70;7.57;;;2.70;94.10;;;;;;4995438;28;20034;-82
2021/01/24 00:02:54;;;;;;;20.67;8.85;;;2.70;94.10;;;;;;4990873;28;20022;-82
2021/01/24 00:05:23;;;;;;;18.98;8.50;;;2.80;94.10;;;;;;4994385;28;20560;-82
2021/01/24 00:07:49;;;;;;;21.15;9.88;;;2.70;94.10;;;;;;4996022;28;20474;-81
2021/01/24 00:10:17;;;;;;;19.67;9.18;;;2.80;94.10;;;;;;4985548;28;20477;-81
2021/01/24 00:12:43;;;;;;;19.45;8.27;;;2.80;94.10;;;;;;4997941;28;20022;-81
2021/01/24 00:15:09;;;;;;;18.38;8.50;;;2.80;94.00;;;;;;4990570;28;20018;-81
2021/01/24 00:17:34;;;;;;;19.30;8.15;;;2.80;94.10;;;;;;4985253;28;20053;-81
2021/01/24 00:20:02;;;;;;;15.70;7.68;;;2.80;94.10;;;;;;4984852;28;20359;-81
2021/01/24 00:22:33;;;;;;;15.65;7.28;;;2.90;94.10;;;;;;4989141;28;20022;-81
2021/01/24 00:24:59;;;;;;;14.52;6.93;;;2.80;94.00;;;;;;4994045;28;20041;-81
2021/01/24 00:27:25;;;;;;;17.13;7.60;;;2.80;94.00;;;;;;4989456;28;20038;-81
2021/01/24 00:29:51;;;;;;;16.17;7.50;;;2.80;94.00;;;;;;4977674;28;20501;-81
2021/01/24 00:32:17;;;;;;;15.27;6.93;;;2.80;94.10;;;;;;4995668;28;20064;-81
2021/01/24 00:34:44;;;;;;;13.52;7.05;;;2.90;94.00;;;;;;4994045;28;20113;-82
2021/01/24 00:37:11;;;;;;;16.63;7.30;;;2.90;94.10;;;;;;4993598;28;20036;-81
2021/01/24 00:39:37;;;;;;;15.45;7.72;;;2.80;94.00;;;;;;4979344;28;20018;-81
2021/01/24 00:42:02;;;;;;;18.25;7.22;;;2.90;94.00;;;;;;4992800;28;20126;-81
2021/01/24 00:44:28;;;;;;;14.13;6.13;;;2.90;94.00;;;;;;4993532;28;20348;-80
2021/01/24 00:46:54;;;;;;;15.70;7.63;;;2.90;94.10;;;;;;5011853;28;20060;-81
2021/01/24 00:49:19;;;;;;;18.05;8.07;;;3.00;94.10;;;;;;4993470;28;20022;-81
2021/01/24 00:51:45;;;;;;;16.98;7.90;;;2.90;94.10;;;;;;4993029;28;20077;-81
2021/01/24 00:54:10;;;;;;;17.77;9.07;;;2.90;94.10;;;;;;4996098;28;20014;-81
2021/01/24 00:56:36;;;;;;;16.40;8.10;;;2.90;94.10;;;;;;4992834;28;20073;-81
2021/01/24 00:59:02;;;;;;;18.90;8.13;;;2.80;93.90;;;;;;4993350;28;20058;-81
2021/01/24 01:01:27;;;;;;;17.63;7.65;;;3.00;94.40;;;;;;4994592;28;20049;-81
2021/01/24 01:03:53;;;;;;;18.20;8.30;;;2.90;94.10;;;;;;4992818;28;20057;-81
2021/01/24 01:06:19;;;;;;;19.95;8.70;;;2.90;94.10;;;;;;4992707;28;20073;-81
2021/01/24 01:08:44;;;;;;;15.73;8.05;;;3.00;94.10;;;;;;4992999;28;20105;-81
2021/01/24 01:11:10;;;;;;;19.30;9.20;;;3.00;94.10;;;;;;4992175;28;20062;-81
2021/01/24 01:13:35;;;;;;;18.35;9.32;;;3.00;94.10;;;;;;4995448;28;20037;-81
2021/01/24 01:16:02;;;;;;;17.70;8.23;;;2.90;94.10;;;;;;4995060;28;20026;-80
2021/01/24 01:18:29;;;;;;;16.27;8.05;;;3.00;94.10;;;;;;4992267;28;20038;-80
2021/01/24 01:20:57;;;;;;;15.85;7.97;;;3.00;94.10;;;;;;4995930;28;20041;-81
2021/01/24 01:23:23;;;;;;;17.95;8.73;;;3.10;94.10;;;;;;4994873;28;20058;-81
2021/01/24 01:25:54;;;;;;;18.98;8.30;;;3.00;94.10;;;;;;4992493;28;20025;-81
2021/01/24 01:28:20;;;;;;;17.52;8.32;;;3.00;94.10;;;;;;4993497;28;20026;-80
2021/01/24 01:30:46;;;;;;;17.70;7.93;;;3.00;94.10;;;;;;4992085;28;20025;-80
2021/01/24 01:33:11;;;;;;;16.40;8.57;;;3.00;94.10;;;;;;4992472;28;20081;-81
2021/01/24 01:35:37;;;;;;;16.10;7.80;;;3.10;94.10;;;;;;4991791;28;20026;-80
2021/01/24 01:38:02;;;;;;;15.73;7.60;;;3.10;94.10;;;;;;4991733;28;20430;-81
2021/01/24 01:40:28;;;;;;;18.15;7.57;;;3.00;93.90;;;;;;4992073;28;20034;-80
2021/01/24 01:42:56;;;;;;;16.77;8.25;;;3.00;94.00;;;;;;4992203;28;20113;-80
2021/01/24 01:45:22;;;;;;;17.17;8.43;;;3.00;94.00;;;;;;4992363;28;20066;-80
2021/01/24 01:47:48;;;;;;;16.52;8.07;;;3.00;94.10;;;;;;4992159;28;20053;-80
2021/01/24 01:50:18;;;;;;;17.27;8.93;;;3.00;94.00;;;;;;4991856;28;20030;-80
2021/01/24 01:52:44;;;;;;;18.00;7.45;;;3.00;93.90;;;;;;4991964;28;20034;-80
2021/01/24 01:55:10;;;;;;;17.55;8.02;;;3.00;93.90;;;;;;4977703;28;20379;-80
2021/01/24 01:57:35;;;;;;;19.60;9.27;;;2.90;94.00;;;;;;4991392;28;20030;-80
2021/01/24 02:00:02;;;;;;;18.25;7.95;;;2.90;94.00;;;;;;4992336;28;20481;-81
2021/01/24 02:03:11;;;;;;;19.15;7.97;;;2.90;94.00;;;;;;4991788;28;20031;-82
2021/01/24 02:05:48;;;;;;;16.90;7.97;;;2.90;94.00;;;;;;4993114;28;20407;-82
2021/01/24 02:08:20;;;;;;;17.83;7.40;;;2.90;94.00;;;;;;4991734;28;20022;-82
2021/01/24 02:10:57;;;;;;;18.20;8.40;;;2.90;94.10;;;;;;4991617;28;20069;-82
2021/01/24 02:13:38;;;;;;;15.20;7.80;;;2.90;94.00;;;;;;4992086;28;20068;-82
2021/01/24 02:16:05;;;;;;;21.02;8.70;;;2.90;93.90;;;;;;4991836;28;20022;-82
2021/01/24 02:18:36;;;;;;;22.73;9.38;;;2.80;93.90;;;;;;4991906;28;20040;-82
2021/01/24 02:21:21;;;;;;;17.08;8.20;;;2.80;93.90;;;;;;4991962;28;20501;-81
2021/01/24 02:23:49;;;;;;;16.38;8.60;;;2.80;94.00;;;;;;4979836;28;20027;-80
2021/01/24 02:26:40;;;;;;;19.40;8.90;;;2.90;94.10;;;;;;4993669;28;20038;-80
2021/01/24 02:29:33;;;;;;;15.30;7.82;;;2.90;94.10;;;;;;4986558;28;20037;-82
2021/01/24 02:32:01;;;;;;;17.42;8.27;;;2.90;94.10;;;;;;4995158;28;20121;-82
2021/01/24 02:34:33;;;;;;;16.60;8.10;;;2.90;94.10;;;;;;4975933;28;20030;-82
2021/01/24 02:37:03;;;;;;;15.88;7.75;;;2.90;94.10;;;;;;4983187;28;20034;-82
2021/01/24 02:39:30;;;;;;;16.92;8.38;;;2.90;94.10;;;;;;4990623;28;20018;-81
2021/01/24 02:41:55;;;;;;;19.58;8.75;;;2.90;94.40;;;;;;4994243;28;20026;-81
2021/01/24 02:44:23;;;;;;;20.05;9.68;;;2.90;94.00;;;;;;4986725;28;20129;-81
2021/01/24 02:46:49;;;;;;;20.60;9.50;;;2.90;94.00;;;;;;4987893;28;20031;-81
2021/01/24 02:49:15;;;;;;;18.42;8.98;;;2.90;94.10;;;;;;4990252;28;20033;-81
2021/01/24 02:51:42;;;;;;;17.55;8.63;;;2.90;94.10;;;;;;4993256;28;20065;-81
2021/01/24 02:54:09;;;;;;;19.25;9.38;;;2.90;94.10;;;;;;4968352;28;20019;-81
2021/01/24 02:56:35;;;;;;;18.58;8.88;;;2.90;94.10;;;;;;4976395;28;20030;-81
2021/01/24 02:59:05;;;;;;;19.10;8.90;;;3.00;94.10;;;;;;4981931;28;20122;-81
2021/01/24 03:01:30;;;;;;;17.27;9.30;;;3.00;94.10;;;;;;4975387;28;20034;-83
2021/01/24 03:03:56;;;;;;;20.45;9.70;;;3.00;94.10;;;;;;4975741;28;20031;-83
2021/01/24 03:06:22;;;;;;;15.90;8.10;;;3.00;94.10;;;;;;4978184;28;20486;-82
2021/01/24 03:08:48;;;;;;;17.60;9.27;;;3.00;94.00;;;;;;4979544;28;20030;-83
2021/01/24 03:11:17;;;;;;;17.15;8.60;;;2.90;94.00;;;;;;4979047;28;20069;-83
2021/01/24 03:13:59;;;;;;;17.60;9.13;;;3.00;94.10;;;;;;4979527;28;20026;-83
2021/01/24 03:16:27;;;;;;;19.27;8.93;;;3.00;94.10;;;;;;4979899;28;20023;-84
2021/01/24 03:18:54;;;;;;;18.25;9.05;;;2.90;94.10;;;;;;4987765;28;20022;-84
2021/01/24 03:21:21;;;;;;;19.58;10.02;;;3.10;94.20;;;;;;4986801;28;20386;-84
2021/01/24 03:23:48;;;;;;;19.83;9.30;;;3.00;94.10;;;;;;4985837;28;20076;-84
2021/01/24 03:26:14;;;;;;;17.95;9.00;;;3.00;93.80;;;;;;4990231;28;20050;-83
2021/01/24 03:28:40;;;;;;;18.30;8.30;;;3.00;93.80;;;;;;4987358;28;20149;-83
2021/01/24 03:31:06;;;;;;;18.42;8.40;;;2.90;93.90;;;;;;4986529;28;20034;-83
2021/01/24 03:33:36;;;;;;;18.63;9.05;;;2.80;93.90;;;;;;4994038;28;20027;-83
2021/01/24 03:36:04;;;;;;;18.23;8.77;;;2.90;94.10;;;;;;4993226;28;20375;-81
2021/01/24 03:38:29;;;;;;;19.13;9.30;;;2.80;94.00;;;;;;4991699;28;20026;-81
2021/01/24 03:40:55;;;;;;;19.25;9.57;;;2.90;94.10;;;;;;4989579;28;20026;-81
2021/01/24 03:43:21;;;;;;;19.42;9.50;;;2.80;93.90;;;;;;4990190;28;20047;-81
2021/01/24 03:45:47;;;;;;;17.17;8.82;;;2.80;94.00;;;;;;4993413;28;20030;-81
2021/01/24 03:48:12;;;;;;;18.65;8.85;;;2.90;94.30;;;;;;4992680;28;20493;-81
2021/01/24 03:50:38;;;;;;;17.85;9.20;;;2.80;94.00;;;;;;4980510;28;20126;-81
2021/01/24 03:53:04;;;;;;;16.85;6.97;;;2.90;94.10;;;;;;4975067;28;20042;-82
2021/01/24 03:55:29;;;;;;;18.45;9.27;;;2.90;94.10;;;;;;4975254;28;20023;-81
2021/01/24 03:57:55;;;;;;;18.02;9.00;;;2.80;94.00;;;;;;4974763;28;20109;-82
2021/01/24 04:00:21;;;;;;;17.98;8.57;;;2.90;94.20;;;;;;4975522;28;20023;-82
2021/01/24 04:02:46;;;;;;;17.83;8.30;;;2.90;94.10;;;;;;4982374;28;20081;-82
2021/01/24 04:05:12;;;;;;;15.25;7.65;;;2.90;94.00;;;;;;4975388;28;20464;-82
2021/01/24 04:07:38;;;;;;;17.15;7.90;;;2.90;94.00;;;;;;4989349;28;20054;-82
2021/01/24 04:10:07;;;;;;;18.08;8.80;;;2.90;93.90;;;;;;4974791;28;20058;-81
2021/01/24 04:12:34;;;;;;;17.27;8.48;;;2.80;94.00;;;;;;4980385;28;20062;-81
2021/01/24 04:15:00;;;;;;;16.02;7.57;;;2.90;94.00;;;;;;4991612;28;20022;-81
2021/01/24 04:17:26;;;;;;;13.75;5.97;;;2.80;93.90;;;;;;4981495;28;20027;-81
2021/01/24 04:19:51;;;;;;;14.88;7.35;;;2.80;94.00;;;;;;4981943;28;20498;-81
2021/01/24 04:22:17;;;;;;;15.38;6.93;;;2.80;94.00;;;;;;4982085;28;20039;-82
2021/01/24 04:24:42;;;;;;;13.15;5.80;;;2.80;94.00;;;;;;4977615;28;20033;-82
2021/01/24 04:27:08;;;;;;;12.77;5.80;;;2.90;94.10;;;;;;4985491;28;20098;-81
2021/01/24 04:29:34;;;;;;;14.48;7.07;;;2.80;94.10;;;;;;4974447;28;20015;-80
2021/01/24 04:32:00;;;;;;;16.98;7.50;;;2.80;94.10;;;;;;4974215;28;20048;-80
2021/01/24 04:34:25;;;;;;;6.65;3.50;;;2.90;94.10;;;;;;4974697;28;20023;-81
2021/01/24 04:36:51;;;;;;;8.02;3.78;;;2.80;94.10;;;;;;4975460;28;20039;-80
2021/01/24 04:39:17;;;;;;;13.55;6.10;;;2.80;94.10;;;;;;4971010;28;20035;-81
2021/01/24 04:41:46;;;;;;;14.93;7.38;;;2.90;94.10;;;;;;4973164;28;20031;-81
2021/01/24 04:44:11;;;;;;;10.35;4.20;;;2.90;94.20;;;;;;4987300;28;20413;-81
2021/01/24 04:46:37;;;;;;;12.35;5.30;;;3.00;94.30;;;;;;4989836;28;20126;-81
2021/01/24 04:49:04;;;;;;;9.88;3.85;;;3.00;94.20;;;;;;4987697;28;20038;-81
2021/01/24 04:51:30;;;;;;;15.32;5.85;;;2.90;94.20;;;;;;4988569;28;20117;-81
2021/01/24 04:53:57;;;;;;;7.45;3.47;;;2.90;94.20;;;;;;4975680;28;20029;-81
2021/01/24 04:56:23;;;;;;;14.35;5.07;;;3.00;94.20;;;;;;4973746;28;20019;-81
2021/01/24 04:58:49;;;;;;;11.77;4.13;;;2.90;94.20;;;;;;4973527;28;20141;-81
2021/01/24 05:01:18;;;;;;;10.45;3.78;;;2.90;94.20;;;;;;4974297;28;20023;-81
2021/01/24 05:03:44;;;;;;;5.97;2.60;;;2.90;94.20;;;;;;4973743;28;20022;-82
2021/01/24 05:06:10;;;;;;;4.55;2.08;;;2.90;94.00;;;;;;4973933;28;20454;-81
2021/01/24 05:08:35;;;;;;;4.85;1.77;;;2.80;93.90;;;;;;4983378;28;20030;-81
2021/01/24 05:11:06;;;;;;;1.40;1.02;;;2.70;93.90;;;;;;4984900;28;20482;-82
2021/01/24 05:13:32;;;;;;;2.50;1.33;;;2.80;94.00;;;;;;4982625;28;20030;-82
2021/01/24 05:16:00;;;;;;;5.35;1.73;;;2.70;94.00;;;;;;4980985;28;20026;-82
2021/01/24 05:18:27;;;;;;;6.35;1.90;;;2.70;94.00;;;;;;4973641;28;20055;-82
2021/01/24 05:20:53;;;;;;;3.10;1.83;;;2.60;94.10;;;;;;4981131;28;20039;-82
2021/01/24 05:23:21;;;;;;;6.78;2.65;;;2.70;94.10;;;;;;4970420;28;20442;-82
2021/01/24 05:25:46;;;;;;;2.38;1.38;;;2.60;94.10;;;;;;4998749;28;20092;-82
2021/01/24 05:28:21;;;;;;;4.38;2.38;;;2.60;94.00;;;;;;4992173;28;20475;-82
2021/01/24 05:30:47;;;;;;;3.03;1.58;;;2.60;94.00;;;;;;4993846;28;20430;-82
2021/01/24 05:33:19;;;;;;;1.17;1.08;;;2.50;94.00;;;;;;4992055;28;20042;-82
2021/01/24 05:35:52;;;;;;;4.97;2.03;;;2.50;94.10;;;;;;4993850;28;20482;-81
2021/01/24 05:38:32;;;;;;;2.50;1.63;;;2.50;94.00;;;;;;4982604;28;20076;-82
2021/01/24 05:41:06;;;;;;;1.77;1.33;;;2.50;94.00;;;;;;4991950;28;20026;-82
2021/01/24 05:43:36;;;;;;;3.75;1.52;;;2.40;93.90;;;;;;4992480;28;20049;-83
2021/01/24 05:46:03;;;;;;;3.88;2.13;;;2.40;93.90;;;;;;4991977;28;20062;-83
2021/01/24 05:48:30;;;;;;;4.05;1.92;;;2.40;93.90;;;;;;4991611;28;20364;-83
2021/01/24 05:50:56;;;;;;;6.03;2.28;;;2.40;94.00;;;;;;4992371;28;20030;-82
2021/01/24 05:53:23;;;;;;;6.25;2.55;;;2.30;93.90;;;;;;4991895;28;20041;-83
2021/01/24 05:55:49;;;;;;;3.08;1.63;;;2.30;93.90;;;;;;4991902;28;20034;-83
2021/01/24 05:58:17;;;;;;;3.60;1.48;;;2.30;93.90;;;;;;4991295;28;20128;-82
2021/01/24 06:00:44;;;;;;;9.93;4.03;;;2.30;94.00;;;;;;4992616;28;20026;-81
2021/01/24 06:03:11;;;;;;;11.68;3.80;;;2.30;94.00;;;;;;4993941;28;20034;-82
2021/01/24 06:05:37;;;;;;;4.88;2.72;;;2.20;93.90;;;;;;4993001;28;20033;-82
2021/01/24 06:08:04;;;;;;;8.55;3.30;;;2.20;93.90;;;;;;4991626;28;20446;-81
2021/01/24 06:10:30;;;;;;;7.57;3.42;;;2.20;94.00;;;;;;4991430;28;20370;-81
2021/01/24 06:12:59;;;;;;;13.30;5.13;;;2.20;94.00;;;;;;4992313;28;20049;-81
2021/01/24 06:15:29;;;;;;;8.43;3.05;;;2.20;94.00;;;;;;4991408;28;20030;-83
2021/01/24 06:17:58;;;;;;;10.93;3.72;;;2.20;94.10;;;;;;4993179;28;20378;-83
2021/01/24 06:20:36;;;;;;;9.07;4.65;;;2.20;94.10;;;;;;4991565;28;20126;-83
2021/01/24 06:23:14;;;;;;;5.68;2.45;;;2.20;94.10;;;;;;4992950;28;20018;-83
2021/01/24 06:25:44;;;;;;;12.07;5.00;;;2.20;94.10;;;;;;4992751;28;20019;-83
2021/01/24 06:28:16;;;;;;;11.45;6.05;;;2.20;94.10;;;;;;4978024;28;20033;-83
2021/01/24 06:30:46;;;;;;;11.35;5.35;;;2.10;94.10;;;;;;4991806;28;20065;-85
2021/01/24 06:33:16;;;;;;;8.18;3.55;;;2.20;94.20;;;;;;4991847;28;20042;-86
2021/01/24 06:35:59;;;;;;;9.00;4.10;;;2.20;94.30;;;;;;4991505;28;20106;-85
2021/01/24 06:38:27;;;;;;;12.45;5.07;;;2.20;94.30;;;;;;4978979;28;20042;-84
2021/01/24 06:40:53;;;;;;;11.18;5.25;;;2.20;94.20;;;;;;4994215;28;20037;-85
2021/01/24 06:43:40;;;;;;;13.38;6.13;;;2.20;94.10;;;;;;4995161;28;20162;-85
2021/01/24 06:46:07;;;;;;;8.13;2.95;;;2.10;94.00;;;;;;4995998;28;20034;-85
2021/01/24 06:48:41;;;;;;;11.40;4.88;;;2.10;94.10;;;;;;4995313;28;20031;-85
2021/01/24 06:51:32;;;;;;;5.00;1.83;;;2.00;94.00;;;;;;4982147;28;20461;-84
2021/01/24 06:54:03;;;;;;;9.38;4.18;;;2.00;94.00;;;;;;4995448;28;20034;-84
2021/01/24 06:56:43;;;;;;;13.23;5.32;;;1.90;93.90;;;;;;4995430;28;20058;-85
2021/01/24 06:59:10;;;;;;;10.73;4.68;;;1.80;93.80;;;;;;4995142;28;20490;-82
2021/01/24 07:01:41;;;;;;;14.57;6.28;;;1.80;93.90;;;;;;4995450;28;20057;-80
2021/01/24 07:04:21;;;;;;;12.55;5.97;;;1.70;93.80;;;;;;4994780;28;20056;-80
2021/01/24 07:07:10;;;;;;;9.73;4.78;;;1.70;93.90;;;;;;4995180;28;20022;-80
2021/01/24 07:09:41;;;;;;;9.95;4.90;;;1.70;93.90;;;;;;4985871;28;20026;-80
2021/01/24 07:12:10;;;;;;;12.57;5.60;;;1.60;93.90;;;;;;4981454;28;20076;-81
2021/01/24 07:14:39;;;;;;;12.38;3.95;;;1.60;93.90;;;;;;4994560;28;20525;-81
2021/01/24 07:17:09;;;;;;;8.82;4.30;;;1.60;93.90;;;;;;4996331;28;20026;-82
2021/01/24 07:19:41;;;;;;;15.27;5.15;;;1.60;93.90;;;;;;4994687;28;20053;-81
2021/01/24 07:22:07;;;;;;;10.77;4.45;;;1.60;93.90;;;;;;4994548;28;20034;-82
2021/01/24 07:24:33;;;;;;;9.35;2.92;;;1.60;94.00;;;;;;4994878;28;20486;-83
2021/01/24 07:26:59;;;;;;;7.82;2.78;;;1.60;94.00;;;;;;5010630;28;20067;-81
2021/01/24 07:29:26;;;;;;;9.23;4.10;;;1.60;94.00;;;;;;4996115;28;20356;-83
2021/01/24 07:31:51;;;;;;;6.93;2.92;;;1.60;93.90;;;;;;4995684;28;20133;-84
2021/01/24 07:34:21;;;;;;;11.32;4.82;;;1.60;93.90;;;;;;4995199;28;20161;-84
2021/01/24 07:36:47;;;;;;;12.75;4.28;;;1.50;94.00;;;;;;4994641;28;20026;-83
2021/01/24 07:39:16;;;;;;;7.30;3.42;;;1.50;93.90;;;;;;4994575;28;20018;-83
2021/01/24 07:41:42;;;;;;;11.93;4.78;;;1.50;94.20;;;;;;4965086;28;20069;-86
2021/01/24 07:44:08;;;;;;;9.32;3.22;;;1.60;93.90;;;;;;4994682;28;20030;-81
2021/01/24 07:46:34;;;;;;;16.13;6.10;;;1.70;94.00;;;;;;5010942;28;20027;-82
2021/01/24 07:49:00;;;;;;;14.95;6.20;;;1.60;93.90;;;;;;4994239;28;20026;-80
2021/01/24 07:51:26;;;;;;;11.05;4.93;;;1.50;93.90;;;;;;4994157;28;20391;-80
2021/01/24 07:53:52;;;;;;;11.30;5.60;;;1.60;93.90;;;;;;4994757;28;20034;-87
2021/01/24 07:56:17;;;;;;;17.50;7.50;;;1.70;93.80;;;;;;4994721;28;20049;-87
2021/01/24 07:58:52;;;;;;;11.00;3.90;;;1.50;93.70;;;;;;4994586;28;20037;-88
2021/01/24 08:01:20;;;;;;;13.93;6.65;;;1.50;93.90;;;;;;5010612;28;20414;-84
2021/01/24 08:03:50;;;;;;;10.50;5.72;;;1.50;93.80;;;;;;4994561;28;20019;-78
2021/01/24 08:06:16;;;;;;;5.43;2.72;;;1.50;93.80;;;;;;4993774;28;20027;-79
2021/01/24 08:08:46;;;;;;;12.00;4.78;;;1.60;94.10;;;;;;4995135;28;20022;-79
2021/01/24 08:11:13;;;;;;;17.05;6.43;;;1.60;93.90;;;;;;5008682;28;20026;-87
2021/01/24 08:13:41;;;;;;;9.68;4.85;;;1.80;94.00;;;;;;4993668;28;20085;-88
2021/01/24 08:16:14;;;;;;;10.98;4.10;;;1.70;93.90;;;;;;4980965;28;20038;-85
2021/01/24 08:18:43;;;;;;;14.30;5.07;;;1.60;93.90;;;;;;4994146;28;20027;-85
2021/01/24 08:21:09;;;;;;;13.27;5.35;;;1.70;93.90;;;;;;4993667;28;20049;-85
2021/01/24 08:23:38;;;;;;;8.40;3.25;;;1.80;94.00;;;;;;5004369;28;20030;-82
2021/01/24 08:29:34;;;;;;;11.18;6.00;;;1.60;93.80;;;;;;4491500;28;20050;-82
2021/01/24 08:32:04;;;;;;;25.85;6.13;;;1.70;93.70;;;;;;4962146;28;21160;-82
2021/01/24 08:34:35;;;;;;;15.98;7.55;;;1.70;93.60;;;;;;4953720;28;20034;-85
2021/01/24 08:37:03;;;;;;;33.00;15.88;;;1.80;93.70;;;;;;4941588;28;20023;-79
2021/01/24 08:39:30;;;;;;;11.30;4.82;;;1.70;93.60;;;;;;4970171;28;20023;-79
2021/01/24 08:41:56;;;;;;;11.48;4.80;;;1.70;93.80;;;;;;4952476;28;20023;-79
2021/01/24 08:44:22;;;;;;;17.58;5.63;;;1.70;93.90;;;;;;4956515;28;20031;-79
2021/01/24 08:46:50;;;;;;;8.43;4.05;;;1.80;93.80;;;;;;4945574;28;20035;-80
2021/01/24 08:49:29;;;;;;;12.30;4.93;;;1.70;93.70;;;;;;4945446;28;20121;-80
2021/01/24 08:51:57;;;;;;;8.88;3.70;;;1.80;93.70;;;;;;4955972;28;20031;-80
2021/01/24 08:54:22;;;;;;;11.48;5.57;;;1.80;93.70;;;;;;4938593;28;20082;-80
2021/01/24 08:57:05;;;;;;;7.60;3.50;;;1.80;93.60;;;;;;4938580;29;20071;-80
2021/01/24 08:59:31;;;;;;;7.85;2.97;;;1.80;93.80;;;;;;4955951;28;20019;-79
2021/01/24 09:01:57;;;;;;;7.15;3.20;;;1.80;93.70;;;;;;4947479;28;20041;-80
2021/01/24 09:04:25;;;;;;;11.90;4.60;;;1.80;93.80;;;;;;4940880;29;20015;-79
2021/01/24 09:07:11;;;;;;;8.57;4.43;;;1.90;93.80;;;;;;4938413;28;20031;-80
2021/01/24 09:09:45;;;;;;;17.13;7.30;;;1.90;93.80;;;;;;4938208;28;20077;-79
2021/01/24 09:12:16;;;;;;;13.02;5.00;;;1.90;93.90;;;;;;4945874;28;20039;-80
2021/01/24 09:14:42;;;;;;;9.25;4.28;;;2.00;93.90;;;;;;4949729;29;20031;-79
2021/01/24 09:17:16;;;;;;;18.80;6.72;;;2.00;93.90;;;;;;4939396;28;20090;-79
2021/01/24 09:19:47;;;;;;;15.50;6.10;;;2.10;93.80;;;;;;4945312;28;20023;-80
2021/01/24 09:22:17;;;;;;;12.27;4.93;;;2.00;93.60;;;;;;4938245;29;20031;-79
2021/01/24 09:24:43;;;;;;;15.75;4.72;;;2.00;93.60;;;;;;4940368;28;20027;-82
2021/01/24 09:27:10;;;;;;;18.45;6.00;;;2.00;93.70;;;;;;4957007;28;20046;-81
2021/01/24 09:29:37;;;;;;;9.95;5.40;;;2.10;93.80;;;;;;4967036;28;20125;-82
2021/01/24 09:32:04;;;;;;;10.23;5.72;;;2.20;93.90;;;;;;4975198;28;20049;-82
2021/01/24 09:34:31;;;;;;;14.60;4.75;;;2.20;93.80;;;;;;4973369;28;20027;-82
2021/01/24 09:36:57;;;;;;;18.20;6.88;;;2.20;93.80;;;;;;4974629;28;20466;-82
2021/01/24 09:39:26;;;;;;;13.60;4.90;;;2.20;93.80;;;;;;4971639;28;20550;-82
2021/01/24 09:41:59;;;;;;;10.63;4.15;;;2.30;93.80;;;;;;4975707;28;20038;-83
2021/01/24 09:44:29;;;;;;;13.68;5.63;;;2.30;93.90;;;;;;4937169;28;20057;-84
2021/01/24 09:46:55;;;;;;;17.73;5.50;;;2.40;93.90;;;;;;4975250;28;20076;-82
2021/01/24 09:49:21;;;;;;;4.95;2.25;;;2.50;94.20;;;;;;4958683;28;20023;-82
2021/01/24 09:51:47;;;;;;;22.30;6.55;;;2.50;93.90;;;;;;4971899;28;20413;-83
2021/01/24 09:54:17;;;;;;;15.27;5.65;;;2.70;94.00;;;;;;4971483;28;20045;-83
2021/01/24 09:56:43;;;;;;;5.53;2.72;;;2.70;94.10;;;;;;4963813;28;20019;-83
2021/01/24 09:59:09;;;;;;;9.60;3.92;;;2.60;93.80;;;;;;4973651;28;20050;-83
2021/01/24 10:01:35;;;;;;;11.05;4.50;;;2.70;93.90;;;;;;4967620;28;20015;-83
2021/01/24 10:04:01;;;;;;;10.77;5.30;;;2.80;93.70;;;;;;4972846;28;20030;-84
2021/01/24 10:06:26;;;;;;;8.85;4.28;;;2.70;93.80;;;;;;4939022;28;20082;-84
2021/01/24 10:08:52;;;;;;;14.35;5.43;;;2.60;93.70;;;;;;4969533;28;20395;-84
2021/01/24 10:11:21;;;;;;;7.20;3.17;;;2.70;93.70;;;;;;4958524;28;20029;-83
2021/01/24 10:13:47;;;;;;;9.70;4.85;;;2.70;93.60;;;;;;4963797;28;20122;-83
2021/01/24 10:16:12;;;;;;;11.02;5.50;;;2.70;93.90;;;;;;4957875;28;20054;-82
2021/01/24 10:18:38;;;;;;;20.33;6.22;;;2.70;93.90;;;;;;4971212;28;20073;-82
2021/01/24 10:21:05;;;;;;;10.93;4.38;;;2.70;93.60;;;;;;4971021;28;20475;-83
2021/01/24 10:23:31;;;;;;;14.05;5.28;;;2.70;93.60;;;;;;4975271;28;20032;-90
2021/01/24 10:25:57;;;;;;;20.65;6.38;;;2.70;93.80;;;;;;4973222;28;20022;-87
2021/01/24 10:28:26;;;;;;;13.10;5.28;;;2.70;93.80;;;;;;4971508;28;20097;-86
2021/01/24 10:30:52;;;;;;;15.65;5.22;;;2.80;93.80;;;;;;4973432;28;20048;-87
2021/01/24 10:33:19;;;;;;;11.57;4.80;;;2.80;94.10;;;;;;4974973;28;20490;-86
2021/01/24 10:35:45;;;;;;;8.40;3.53;;;2.90;93.80;;;;;;4970312;28;20023;-87
2021/01/24 10:38:11;;;;;;;10.77;5.18;;;2.80;93.60;;;;;;4954353;28;20034;-85
2021/01/24 10:40:37;;;;;;;12.05;4.22;;;2.70;93.50;;;;;;4974661;28;20023;-86
2021/01/24 10:43:04;;;;;;;9.90;4.85;;;2.70;93.70;;;;;;4971372;28;20106;-86
2021/01/24 10:45:31;;;;;;;18.52;6.00;;;2.70;93.70;;;;;;4974703;28;20029;-86
2021/01/24 10:48:00;;;;;;;13.48;5.25;;;2.80;93.90;;;;;;4970075;28;20066;-86
2021/01/24 10:50:28;;;;;;;10.88;5.32;;;2.80;93.90;;;;;;4972792;28;20034;-86
2021/01/24 10:52:53;;;;;;;16.05;5.28;;;2.80;93.80;;;;;;4972597;28;20041;-85
2021/01/24 10:55:22;;;;;;;10.80;4.05;;;2.90;93.70;;;;;;4972636;28;20118;-84
2021/01/24 10:57:48;;;;;;;9.27;4.30;;;2.90;93.70;;;;;;4955952;28;20388;-84
2021/01/24 11:00:18;;;;;;;17.73;6.03;;;2.90;93.80;;;;;;4972070;28;20031;-83
2021/01/24 11:02:43;;;;;;;12.88;5.45;;;2.90;93.70;;;;;;4972280;28;20460;-84
2021/01/24 11:05:09;;;;;;;13.48;5.28;;;2.90;93.80;;;;;;4972169;28;20054;-85
2021/01/24 11:07:36;;;;;;;10.70;3.90;;;2.90;94.00;;;;;;4959427;28;20026;-84
2021/01/24 11:10:07;;;;;;;8.70;3.88;;;2.90;93.80;;;;;;4971660;28;20077;-84
2021/01/24 11:12:32;;;;;;;16.50;5.22;;;2.90;93.60;;;;;;4972328;28;20391;-84
2021/01/24 11:14:58;;;;;;;11.43;4.90;;;2.90;93.50;;;;;;4971957;28;20022;-82
2021/01/24 11:17:24;;;;;;;12.20;4.57;;;2.70;93.40;;;;;;4972239;28;20027;-84
2021/01/24 11:20:18;;;;;;;10.70;3.42;;;2.70;93.60;;;;;;4974478;28;20026;-84
2021/01/24 11:22:43;;;;;;;5.60;2.45;;;2.70;93.80;;;;;;4974145;28;20033;-85
2021/01/24 11:25:10;;;;;;;12.25;4.47;;;2.80;93.90;;;;;;4971544;28;20113;-84
2021/01/24 11:27:36;;;;;;;13.57;5.38;;;2.70;94.00;;;;;;4967642;28;20118;-84
2021/01/24 11:30:06;;;;;;;8.00;3.13;;;2.70;93.70;;;;;;4977616;28;20133;-84
2021/01/24 11:32:32;;;;;;;11.32;4.57;;;2.60;93.70;;;;;;4978257;28;20035;-84
2021/01/24 11:34:58;;;;;;;13.32;4.78;;;2.60;93.70;;;;;;4977601;28;20482;-84
2021/01/24 11:37:24;;;;;;;10.88;4.03;;;2.60;93.50;;;;;;4977218;28;20030;-84
2021/01/24 11:39:49;;;;;;;7.03;3.35;;;2.50;93.60;;;;;;4977333;28;20022;-84
2021/01/24 11:42:15;;;;;;;9.55;4.38;;;2.40;93.60;;;;;;4970773;28;20545;-84
2021/01/24 11:44:41;;;;;;;8.50;3.97;;;2.50;93.80;;;;;;4975238;28;20095;-83
2021/01/24 11:47:07;;;;;;;12.20;4.32;;;2.50;93.60;;;;;;4975535;28;20043;-83
2021/01/24 11:49:33;;;;;;;9.15;4.10;;;2.50;93.50;;;;;;4978111;28;20072;-82
2021/01/24 11:52:07;;;;;;;12.57;3.08;;;2.40;93.40;;;;;;4950908;28;20031;-82
2021/01/24 11:54:33;;;;;;;15.18;4.70;;;2.30;93.40;;;;;;4960424;28;20476;-82
2021/01/24 11:56:58;;;;;;;8.48;3.95;;;2.30;93.50;;;;;;4976725;28;20069;-82
2021/01/24 11:59:24;;;;;;;9.35;3.38;;;2.30;93.50;;;;;;4977751;28;20169;-82
2021/01/24 12:01:50;;;;;;;8.43;3.30;;;2.10;93.50;;;;;;4977082;28;20092;-83
2021/01/24 12:04:15;;;;;;;6.15;2.70;;;2.10;93.60;;;;;;4977282;28;20370;-83
2021/01/24 12:06:41;;;;;;;5.97;2.35;;;2.10;93.60;;;;;;4974325;28;20489;-81
2021/01/24 12:09:07;;;;;;;9.95;4.25;;;2.20;93.80;;;;;;4958225;28;20576;-82
2021/01/24 12:11:33;;;;;;;10.25;3.65;;;2.20;93.60;;;;;;4977286;28;20037;-83
2021/01/24 12:13:59;;;;;;;5.00;2.05;;;2.20;93.70;;;;;;4976036;28;20463;-83
2021/01/24 12:16:24;;;;;;;10.02;3.78;;;2.30;93.90;;;;;;4974806;28;20030;-83
2021/01/24 12:18:50;;;;;;;12.93;4.30;;;2.40;94.10;;;;;;4950228;28;20035;-81
2021/01/24 12:21:16;;;;;;;14.00;4.00;;;2.40;94.20;;;;;;4974839;28;20019;-82
2021/01/24 12:23:41;;;;;;;7.63;3.20;;;2.50;93.80;;;;;;4958534;28;20027;-83
2021/01/24 12:26:07;;;;;;;5.13;2.53;;;2.50;93.60;;;;;;4958462;28;20039;-81
2021/01/24 12:28:32;;;;;;;9.32;4.32;;;2.40;93.60;;;;;;4954681;28;20163;-81
2021/01/24 12:31:01;;;;;;;9.00;4.38;;;2.40;93.50;;;;;;4956917;28;20109;-83
2021/01/24 12:33:27;;;;;;;11.65;3.97;;;2.30;93.40;;;;;;4940540;29;20043;-80
2021/01/24 12:35:52;;;;;;;12.77;4.13;;;2.30;93.60;;;;;;4945956;28;20023;-80
2021/01/24 12:38:22;;;;;;;8.38;3.08;;;2.10;93.40;;;;;;4954736;28;20058;-82
2021/01/24 12:40:47;;;;;;;7.65;3.00;;;2.10;93.50;;;;;;4948664;28;20106;-80
2021/01/24 12:43:13;;;;;;;19.95;5.78;;;2.00;93.40;;;;;;4958672;28;20115;-83
2021/01/24 12:45:39;;;;;;;15.00;4.43;;;2.00;93.40;;;;;;4953009;28;20428;-81
2021/01/24 12:48:07;;;;;;;14.07;4.22;;;1.80;93.50;;;;;;4937836;29;20538;-81
2021/01/24 12:50:33;;;;;;;17.45;5.57;;;1.90;93.60;;;;;;4944867;29;20332;-81
2021/01/24 12:53:00;;;;;;;7.18;2.78;;;1.80;93.60;;;;;;4945315;28;20074;-83
2021/01/24 12:55:46;;;;;;;12.50;3.97;;;1.90;93.70;;;;;;4944270;29;20065;-83
2021/01/24 12:58:18;;;;;;;9.07;3.15;;;1.90;93.80;;;;;;4936590;29;20047;-82